Terminal Aerodrome Forecast
Issued by NWS Twin Cities, MN

Home | Current Version | Previous Version | Graphics & Text | Print | Product List | Glossary On
Versions: 1 2 3 4 5 6 7 8 9 10 11 12 13 14 15 16 17 18 19 20 21 22 23 24 25 26 27 28 29 30
193
FTUS43 KMPX 171120
TAFMSP
TAF
KMSP 171120Z 1712/1818 22008KT 5SM -SN BKN030 OVC070
      TEMPO 1712/1714 2SM -SN BKN025 OVC040
     FM171600 25007KT P6SM SCT025 BKN050
     FM171700 29010KT P6SM SCT050 BKN200
     FM180100 28007KT P6SM SKC
     FM180800 12005KT P6SM BKN100
     FM181500 12013G21KT P6SM SCT025 OVC080=

USA.gov is the U.S. government's official web portal to all federal, state and local government web resources and services.